Latest Coastal Weather Observations for Kowanyama

IDQ60701

Issued at 2:25 am EST Wednesday 24 September 2014 (issued every 10 minutes, with the page automatically refreshed every 10 minutes)

About coastal observations | Map of coastal stations | Coastal observations for QLD | Marine services | Other Formats
Station Details ID: 029038 Name: KOWANYAMA AIRPORT Lat: -15.48 Lon: 141.75 Height: 9.6 m
Data from the previous 72 hours. | See also: Recent months at Kowanyama
Date/Time
EST
Temp

°C
Wind Pressure Rain
since 9am
mm
Weather Cloud Vis
km
Sea
Height
m
Swell
Dir
 
Speed
knots
Gust
knots
hPa Trend Height
m
Period
s
Dir
24/02:00am 22.7 ESE 1 3 1014.5 - 0.0 - - - - - - -
24/01:30am 23.5 CALM 0 0 1014.6 - 0.0 - - - - - - -
24/01:00am 24.0 S 3 4 1014.7 - 0.0 - - - - - - -
24/12:30am 24.3 CALM 0 0 1014.8 - 0.0 - - - - - - -
24/12:00am 24.0 NE 3 5 1014.7 - 0.0 - - - - - - -
 
Date/Time
EST
Temp

°C
Wind Pressure Rain
since 9am
mm
Weather Cloud Vis
km
Sea
Height
m
Swell
Dir
 
Speed
knots
Gust
knots
hPa Trend Height
m
Period
s
Dir
23/11:30pm 23.8 NE 3 4 1014.7 - 0.0 - - - - - - -
23/11:00pm 23.9 NE 3 5 1014.6 - 0.0 - - - - - - -
23/10:30pm 24.0 NE 4 6 1014.7 - 0.0 - - - - - - -
23/10:00pm 23.7 NE 4 6 1014.3 - 0.0 - - - - - - -
23/09:30pm 24.2 CALM 0 0 1013.7 - 0.0 - - - - - - -
23/09:00pm 24.6 WSW 4 6 1013.3 - 0.0 - - - - - - -
23/08:30pm 25.0 WSW 5 8 1013.1 - 0.0 - - - - - - -
23/08:00pm 25.4 SW 6 8 1012.8 - 0.0 - - - - - - -
23/07:30pm 25.9 WSW 7 10 1012.4 - 0.0 - - - - - - -
23/07:00pm 26.5 WSW 7 10 1011.8 - 0.0 - - - - - - -
23/06:30pm 27.6 WSW 7 11 1011.5 - 0.0 - - - - - - -
23/06:00pm 28.9 W 10 14 1011.2 - 0.0 - - - - - - -
23/05:30pm 30.8 W 12 14 1011.0 - 0.0 - - - - - - -
23/05:00pm 32.1 W 12 15 1010.7 - 0.0 - - - - - - -
23/04:30pm 33.6 WNW 9 11 1010.5 - 0.0 - - - - - - -
23/04:00pm 33.8 E 5 8 1010.4 - 0.0 - - - - - - -
23/03:30pm 35.2 S 3 9 1010.5 - 0.0 - - - - - - -
23/03:00pm 33.6 NNE 5 9 1011.0 - 0.0 - - - - - - -
23/02:30pm 34.8 NNE 4 9 1011.2 - 0.0 - - - - - - -
23/02:00pm 33.8 NNW 4 9 1011.6 - 0.0 - - - - - - -
23/01:30pm 33.3 NE 7 11 1012.1 - 0.0 - - - - - - -
23/01:00pm 32.5 NNE 7 9 1012.6 - 0.0 - - - - - - -
23/12:30pm 32.0 ENE 6 10 1013.4 - 0.0 - - - - - - -
23/12:00pm 31.1 ENE 7 11 1014.1 - 0.0 - - - - - - -
23/11:30am 31.4 NE 6 11 1014.7 - 0.0 - - - - - - -
23/11:00am 29.4 NE 8 13 1015.3 - 0.0 - - - - - - -
23/10:30am 29.6 NE 8 14 1015.8 - 0.0 - - - - - - -
23/10:00am 28.1 NE 9 16 1016.1 - 0.0 - - - - - - -
23/09:30am 27.1 NE 11 16 1016.2 - 0.0 - - - - - - -
23/09:00am 26.1 ENE 10 16 1016.3 - 0.0 - - - - - - -
23/08:30am 24.9 NE 7 11 1016.2 - 0.0 - - - - - - -
23/08:00am 23.8 ENE 3 4 1016.2 - 0.0 - - - - - - -
23/07:30am 21.9 CALM 0 0 1015.9 - 0.0 - - - - - - -
23/07:00am 19.5 CALM 0 0 1015.4 - 0.0 - - - - - - -
23/06:30am 18.9 CALM 0 0 1015.0 - 0.0 - - - - - - -
23/06:00am 19.2 CALM 0 0 1014.7 - 0.0 - - - - - - -
23/05:30am 19.8 CALM 0 0 1014.3 - 0.0 - - - - - - -
23/05:00am 20.2 NNE 3 4 1013.9 - 0.0 - - - - - - -
23/04:30am 19.8 NE 3 5 1013.6 - 0.0 - - - - - - -
23/04:00am 19.3 NE 3 4 1013.5 - 0.0 - - - - - - -
23/03:30am 19.6 NE 3 4 1013.4 - 0.0 - - - - - - -
23/03:00am 19.8 NE 4 5 1013.2 - 0.0 - - - - - - -
23/02:30am 20.2 NNE 1 4 1013.2 - 0.0 - - - - - - -
23/02:00am 20.6 NE 3 4 1013.3 - 0.0 - - - - - - -
23/01:30am 21.0 CALM 0 0 1013.6 - 0.0 - - - - - - -
23/01:00am 21.5 E 3 6 1013.8 - 0.0 - - - - - - -
23/12:30am 22.1 NE 4 5 1013.9 - 0.0 - - - - - - -
23/12:00am 22.3 NE 7 14 1013.9 - 0.0 - - - - - - -
 
Date/Time
EST
Temp

°C
Wind Pressure Rain
since 9am
mm
Weather Cloud Vis
km
Sea
Height
m
Swell
Dir
 
Speed
knots
Gust
knots
hPa Trend Height
m
Period
s
Dir
22/11:30pm 21.1 WSW 4 5 1012.9 - 0.0 - - - - - - -
22/11:00pm 21.5 W 1 4 1013.0 - 0.0 - - - - - - -
22/10:30pm 21.8 CALM 0 0 1013.2 - 0.0 - - - - - - -
22/10:00pm 22.5 SW 2 4 1013.1 - 0.0 - - - - - - -
22/09:30pm 22.8 SW 3 4 1013.1 - 0.0 - - - - - - -
22/09:00pm 23.3 SW 5 7 1012.9 - 0.0 - - - - - - -
22/08:30pm 23.6 WSW 5 7 1012.7 - 0.0 - - - - - - -
22/08:00pm 24.2 WSW 5 7 1012.5 - 0.0 - - - - - - -
22/07:30pm 24.8 WSW 6 8 1012.4 - 0.0 - - - - - - -
22/07:00pm 25.5 SW 9 13 1012.1 - 0.0 - - - - - - -
22/06:30pm 26.3 WSW 8 11 1011.8 - 0.0 - - - - - - -
22/06:00pm 27.5 WSW 10 13 1011.5 - 0.0 - - - - - - -
22/05:30pm 28.7 WSW 11 16 1011.4 - 0.0 - - - - - - -
22/05:00pm 30.0 W 11 17 1011.2 - 0.0 - - - - - - -
22/04:30pm 30.6 W 12 16 1011.0 - 0.0 - - - - - - -
22/04:00pm 30.9 WSW 11 15 1011.0 - 0.0 - - - - - - -
22/03:30pm 31.4 W 12 17 1010.8 - 0.0 - - - - - - -
22/03:00pm 33.0 W 11 15 1010.9 - 0.0 - - - - - - -
22/02:30pm 33.1 WNW 10 14 1011.1 - 0.0 - - - - - - -
22/02:00pm 33.2 WSW 5 8 1011.3 - 0.0 - - - - - - -
22/01:30pm 33.3 ENE 4 6 1011.8 - 0.0 - - - - - - -
22/01:00pm 32.9 NNE 5 9 1012.4 - 0.0 - - - - - - -
22/12:30pm 32.2 SSE 4 7 1013.1 - 0.0 - - - - - - -
22/12:00pm 31.9 NNW 4 6 1013.6 - 0.0 - - - - - - -
22/11:30am 30.6 NNW 5 7 1014.4 - 0.0 - - - - - - -
22/11:00am 29.8 N 7 10 1014.8 - 0.0 - - - - - - -
22/10:30am 29.5 NNE 7 11 1015.3 - 0.0 - - - - - - -
22/10:00am 28.0 NNE 7 13 1015.7 - 0.0 - - - - - - -
22/09:30am 26.9 NNE 7 11 1015.9 - 0.0 - - - - - - -
22/09:00am 26.1 NE 7 10 1016.2 - 0.0 - - - - - - -
22/08:30am 25.0 NNE 9 15 1015.8 - 0.0 - - - - - - -
22/08:00am 23.8 NE 10 15 1015.4 - 0.0 - - - - - - -
22/07:30am 22.5 NE 8 12 1015.0 - 0.0 - - - - - - -
22/07:00am 20.9 NNE 5 7 1014.8 - 0.0 - - - - - - -
22/06:30am 20.1 NNE 5 7 1014.6 - 0.0 - - - - - - -
22/06:00am 19.9 NNE 3 6 1014.3 - 0.0 - - - - - - -
22/05:30am 20.2 NNE 4 5 1014.3 - 0.0 - - - - - - -
22/05:00am 20.2 NE 4 6 1014.2 - 0.0 - - - - - - -
22/04:30am 19.8 NE 2 5 1014.0 - 0.0 - - - - - - -
22/04:00am 19.3 ENE 3 4 1014.0 - 0.0 - - - - - - -
22/03:30am 19.1 NE 3 5 1013.9 - 0.0 - - - - - - -
22/03:00am 18.9 NE 4 5 1013.9 - 0.0 - - - - - - -
22/02:30am 19.2 CALM 0 0 1014.0 - 0.0 - - - - - - -
22/02:00am 19.5 CALM 0 0 1014.3 - 0.0 - - - - - - -
22/01:30am 19.7 CALM 0 0 1014.5 - 0.0 - - - - - - -
22/01:00am 20.0 CALM 0 3 1014.7 - 0.0 - - - - - - -
22/12:30am 20.5 NNE 3 5 1014.9 - 0.0 - - - - - - -
22/12:00am 20.9 NE 3 5 1015.1 - 0.0 - - - - - - -
 
Date/Time
EST
Temp

°C
Wind Pressure Rain
since 9am
mm
Weather Cloud Vis
km
Sea
Height
m
Swell
Dir
 
Speed
knots
Gust
knots
hPa Trend Height
m
Period
s
Dir
21/11:30pm 21.6 CALM 0 3 1015.0 - 0.0 - - - - - - -
21/11:00pm 21.7 NE 4 6 1015.2 - 0.0 - - - - - - -
21/10:30pm 22.1 ENE 3 5 1014.9 - 0.0 - - - - - - -
21/10:00pm 23.2 CALM 0 3 1014.8 - 0.0 - - - - - - -
21/09:30pm 23.8 S 4 5 1014.6 - 0.0 - - - - - - -
21/09:00pm 24.1 SSW 5 7 1014.4 - 0.0 - - - - - - -
21/08:30pm 24.4 SW 4 5 1014.2 - 0.0 - - - - - - -
21/08:00pm 25.0 SW 5 6 1013.7 - 0.0 - - - - - - -
21/07:30pm 25.5 SW 6 8 1013.5 - 0.0 - - - - - - -
21/07:00pm 26.0 WSW 7 11 1013.0 - 0.0 - - - - - - -
21/06:30pm 26.7 WSW 8 10 1012.7 - 0.0 - - - - - - -
21/06:00pm 28.0 WSW 9 12 1012.4 - 0.0 - - - - - - -
21/05:30pm 29.0 WSW 8 12 1012.2 - 0.0 - - - - - - -
21/05:00pm 30.2 W 10 13 1011.8 - 0.0 - - - - - - -
21/04:30pm 31.5 W 10 14 1011.6 - 0.0 - - - - - - -
21/04:00pm 33.6 SSE 6 9 1011.4 - 0.0 - - - - - - -
21/03:30pm 34.1 N 4 7 1011.4 - 0.0 - - - - - - -
21/03:00pm 33.5 NE 4 7 1011.8 - 0.0 - - - - - - -
21/02:30pm 33.1 NE 4 7 1012.3 - 0.0 - - - - - - -
21/02:00pm 33.3 NE 5 9 1012.8 - 0.0 - - - - - - -
21/01:30pm 32.0 NNE 6 10 1013.2 - 0.0 - - - - - - -
21/01:00pm 31.5 ENE 7 13 1013.8 - 0.0 - - - - - - -
21/12:30pm 30.9 E 6 9 1014.4 - 0.0 - - - - - - -
21/12:00pm 30.1 E 6 11 1015.3 - 0.0 - - - - - - -
21/11:30am 30.1 NE 7 13 1015.7 - 0.0 - - - - - - -
21/11:00am 29.7 NNE 9 14 1016.1 - 0.0 - - - - - - -
21/10:30am 28.6 ENE 8 13 1016.4 - 0.0 - - - - - - -
21/10:00am 27.4 NE 9 14 1016.8 - 0.0 - - - - - - -
21/09:30am 25.9 NE 9 13 1016.8 - 0.0 - - - - - - -
21/09:00am 25.3 E 6 8 1016.7 - 0.0 - - - - - - -
21/08:30am 24.2 E 4 6 1016.6 - 0.0 - - - - - - -
21/08:00am 22.1 E 4 5 1016.2 - 0.0 - - - - - - -
21/07:30am 20.1 ESE 4 6 1015.7 - 0.0 - - - - - - -
21/07:00am 18.3 ENE 3 4 1015.1 - 0.0 - - - - - - -
21/06:30am 18.5 ENE 1 3 1014.5 - 0.0 - - - - - - -
21/06:00am 18.7 NE 3 4 1014.0 - 0.0 - - - - - - -
21/05:30am 18.7 NE 3 4 1013.7 - 0.0 - - - - - - -
21/05:00am 19.0 ENE 2 4 1013.5 - 0.0 - - - - - - -
21/04:30am 19.1 CALM 0 0 1013.3 - 0.0 - - - - - - -
21/04:00am 19.5 CALM 0 0 1013.3 - 0.0 - - - - - - -
21/03:30am 19.7 CALM 0 0 1013.4 - 0.0 - - - - - - -
21/03:00am 20.1 CALM 0 0 1013.5 - 0.0 - - - - - - -
21/02:30am 20.4 ESE 3 4 1013.7 - 0.0 - - - - - - -

Other Formats:

Comma delimited format used in spreadsheet applications
http://www.bom.gov.au/fwo/IDQ60701/IDQ60701.94268.axf

JavaScript Object Notation format (JSON) in row-major order
http://www.bom.gov.au/fwo/IDQ60701/IDQ60701.94268.json